Terminal Aerodrome Forecast
Issued by NWS

Home | Current Version | Previous Version | Text Only | Print | Product List | Glossary On
Versions: 1 2 3 4 5 6 7 8 9 10 11 12 13 14 15 16 17 18 19 20 21 22 23 24 25 26 27 28 29 30 31 32
836
FTUS46 KSGX 241246 AAA
TAFSAN
TAF AMD
KSAN 241246Z 2413/2518 VRB03KT 2SM BR OVC003
     FM241500 VRB04KT 5SM BR BKN005
     FM241700 VRB04KT P6SM SCT010 SCT250
     FM241900 27010KT P6SM SCT250
     FM250100 VRB04KT P6SM SCT012 SCT250
     FM250600 VRB04KT P6SM OVC010
     FM251700 VRB04KT P6SM SCT015=

USA.gov is the U.S. government's official web portal to all federal, state and local government web resources and services.